Flight Track Log - Related Links

Times and Time Zones

All times are in EST time to prevent confusion due to time zone crossing. See the N6319G flight status page for this flight to view local times or setup timezone preferences in your user account.

Time Position Orientation Groundspeed Altitude Reporting Facility
EST Latitude Longitude Course Direction KTS MPH feet Rate Location/Type
Sun 07:22:32 PM 41.5572 -93.6525 71° East 70 81 2,300  Level Minneapolis Center
Sun 07:23:13 PM 41.5569 -93.6414 92° East 78 90 2,900 885 Climbing Minneapolis Center
Sun 07:23:33 PM 41.5653 -93.6244 57° Northeast 78 90 3,200 774 Climbing Minneapolis Center
Sun 07:24:15 PM 41.5639 -93.6156 102° East 78 90 3,700 787 Climbing Minneapolis Center
Sun 07:24:34 PM 41.5733 -93.5992 52° Northeast 75 86 4,000 871 Climbing Minneapolis Center
Sun 07:25:17 PM 41.5733 -93.5881 90° East 77 89 4,600 700 Climbing Minneapolis Center
Sun 07:25:34 PM 41.5811 -93.5742 53° Northeast 76 87 4,700 387 Climbing Minneapolis Center
Sun 07:26:19 PM 41.5814 -93.5606 88° East 77 89 5,000 295 Climbing Minneapolis Center
Sun 07:26:35 PM 41.5911 -93.5406 57° Northeast 93 107 5,000  Level Minneapolis Center
Sun 07:27:00 PM 41.5356 -93.6566 71° East  Level FlightAware
Sun 07:27:21 PM 41.5942 -93.5189 79° East 116 133 5,000  Level Minneapolis Center
Sun 07:27:36 PM 41.6031 -93.4986 60° Northeast 126 145 5,000  Level Minneapolis Center
Sun 07:28:23 PM 41.6075 -93.4756 76° East 119 137 5,000  Level Minneapolis Center
Sun 07:28:36 PM 41.6169 -93.4567 56° Northeast 122 140 5,000  Level Minneapolis Center
Sun 07:29:24 PM 41.6200 -93.4356 79° East 118 136 5,000  Level Minneapolis Center
Sun 07:29:37 PM 41.6289 -93.4172 57° Northeast 114 131 5,000  Level Minneapolis Center
Sun 07:30:26 PM 41.6325 -93.3931 79° East 118 136 5,000  Level Minneapolis Center
Sun 07:30:38 PM 41.6408 -93.3781 53° Northeast 114 131 5,000  Level Minneapolis Center
Sun 07:31:28 PM 41.6447 -93.3528 78° East 118 136 5,000  Level Minneapolis Center
Sun 07:31:38 PM 41.6528 -93.3389 52° Northeast 117 135 5,000  Level Minneapolis Center
Sun 07:32:30 PM 41.6581 -93.3083 77° East 118 136 5,000  Level Minneapolis Center
Sun 07:32:33 PM 41.6647 -93.2997 44° Northeast 119 137 5,000  Level Minneapolis Center
Sun 07:33:32 PM 41.6706 -93.2675 76° East 118 136 5,000  Level Minneapolis Center
Sun 07:33:33 PM 41.6764 -93.2575 52° Northeast 119 137 5,000  Level Minneapolis Center
Sun 07:34:33 PM 41.6831 -93.2269 74° East 118 136 5,000  Level Minneapolis Center
Sun 07:34:34 PM 41.6883 -93.2183 51° Northeast 119 137 5,000  Level Minneapolis Center
Sun 07:35:35 PM 41.7022 -93.1761 66° East 118 136 5,000  Level Minneapolis Center
Sun 07:36:35 PM 41.7139 -93.1339 70° East 118 136 5,000  Level Minneapolis Center
Sun 07:36:37 PM 41.7083 -93.1428 230° Southwest 118 136 5,000  Level Minneapolis Center
Sun 07:37:36 PM 41.7258 -93.0947 64° Northeast 117 135 5,000  Level Minneapolis Center
Sun 07:37:39 PM 41.7206 -93.1025 228° Southwest 118 136 5,000  Level Minneapolis Center
Sun 07:38:41 PM 41.7333 -93.0592 68° East 118 136 5,000  Level Minneapolis Center
Sun 07:39:42 PM 41.7458 -93.0186 68° East 118 136 5,000  Level Minneapolis Center
Sun 07:40:44 PM 41.7589 -92.9747 68° East 118 136 5,000  Level Minneapolis Center
Sun 07:41:46 PM 41.7711 -92.9336 68° East 118 136 5,000  Level Minneapolis Center
Sun 07:42:48 PM 41.7833 -92.8925 68° East 118 136 5,000  Level Minneapolis Center
Sun 07:43:49 PM 41.7964 -92.8478 69° East 118 136 5,000  Level Minneapolis Center
Sun 07:44:51 PM 41.8083 -92.8064 69° East 118 136 5,000  Level Minneapolis Center
Sun 07:45:53 PM 41.8214 -92.7628 68° East 118 136 5,000  Level Minneapolis Center
Sun 07:46:55 PM 41.8342 -92.7222 67° East 118 136 5,000  Level Minneapolis Center
Sun 07:47:56 PM 41.8453 -92.6803 70° East 118 136 5,000  Level Minneapolis Center
Sun 07:48:58 PM 41.8583 -92.6361 68° East 118 136 5,000  Level Minneapolis Center
Sun 07:50:00 PM 41.8706 -92.5939 69° East 119 137 5,000  Level Minneapolis Center
Sun 07:51:01 PM 41.8819 -92.5525 70° East 119 137 5,000  Level Minneapolis Center
Sun 07:52:03 PM 41.8953 -92.5081 68° East 119 137 5,000  Level Minneapolis Center
Sun 07:53:05 PM 41.9075 -92.4664 68° East 119 137 5,000 49 Level Minneapolis Center
Sun 07:54:06 PM 41.9189 -92.4308 67° East 119 137 5,100  Climbing Minneapolis Center
Sun 07:55:08 PM 41.9308 -92.3906 68° East 119 137 5,000  Descending Minneapolis Center
Sun 07:56:10 PM 41.9453 -92.3403 69° East 119 137 5,100 49 Climbing Minneapolis Center
Sun 07:57:11 PM 41.9572 -92.2978 69° East 119 137 5,100  Level Minneapolis Center
Sun 07:58:13 PM 41.9692 -92.2561 69° East 119 137 5,100 -41 Level Minneapolis Center
Sun 07:59:36 PM 41.9850 -92.1917 72° East 122 140 5,000 -41 Descending Chicago Center
Sun 08:00:38 PM 41.9978 -92.1503 67° East 122 140 5,000  Level Chicago Center
Sun 08:01:41 PM 42.0100 -92.1100 68° East 120 138 5,000 48 Level Chicago Center
Sun 08:02:43 PM 42.0247 -92.0600 68° East 120 138 5,100 48 Climbing Chicago Center
Sun 08:03:45 PM 42.0361 -92.0175 70° East 120 138 5,100  Level Chicago Center
Sun 08:04:47 PM 42.0481 -91.9769 68° East 120 138 5,100  Level Chicago Center
Sun 08:05:49 PM 42.0611 -91.9350 67° East 121 139 5,100  Level Chicago Center
Sun 08:06:51 PM 42.0728 -91.8917 70° East 122 140 5,100  Level Chicago Center
Sun 08:07:53 PM 42.0856 -91.8494 68° East 123 142 5,100  Level Chicago Center
Sun 08:08:55 PM 42.1000 -91.7978 69° East 123 142 5,100  Level Chicago Center
Sun 08:09:57 PM 42.1119 -91.7539 70° East 124 143 5,100  Level Chicago Center
Sun 08:10:59 PM 42.1244 -91.7108 69° East 125 144 5,100  Level Chicago Center
Sun 08:12:01 PM 42.1364 -91.6678 69° East 124 143 5,100  Level Chicago Center
Sun 08:13:03 PM 42.1489 -91.6253 68° East 124 143 5,100  Level Chicago Center
Sun 08:14:05 PM 42.1628 -91.5731 70° East 124 143 5,100  Level Chicago Center
Sun 08:15:07 PM 42.1756 -91.5300 68° East 124 143 5,100  Level Chicago Center
Sun 08:16:09 PM 42.1881 -91.4881 68° East 124 143 5,100  Level Chicago Center
Sun 08:17:11 PM 42.1992 -91.4450 71° East 123 142 5,100  Level Chicago Center
Sun 08:18:13 PM 42.2114 -91.4025 69° East 123 142 5,100  Level Chicago Center
Sun 08:19:16 PM 42.2256 -91.3508 70° East 123 142 5,100 -48 Level Chicago Center
Sun 08:20:18 PM 42.2375 -91.3083 69° East 122 140 5,000  Descending Chicago Center
Sun 08:21:20 PM 42.2494 -91.2664 69° East 122 140 5,100 48 Climbing Chicago Center
Sun 08:22:22 PM 42.2617 -91.2236 69° East 122 140 5,100  Level Chicago Center
Sun 08:23:24 PM 42.2739 -91.1797 69° East 123 142 5,100 -145 Level Chicago Center
Sun 08:24:26 PM 42.2886 -91.1278 69° East 124 143 4,800 -435 Descending Chicago Center
Sun 08:25:28 PM 42.3008 -91.0800 71° East 128 147 4,200 -339 Descending Chicago Center
Sun 08:26:30 PM 42.3139 -91.0347 69° East 131 151 4,100 -97 Descending Chicago Center

Login

Don't have an account? Register now (free) for customized features, flight alerts, and more!